createdAt,value
2022-10-17T00:00:40.260Z,2.00
2022-10-17T00:03:09.816Z,2.30
2022-10-17T00:05:41.160Z,2.50
2022-10-17T00:08:09.565Z,2.53
2022-10-17T00:10:37.505Z,2.63
2022-10-17T00:13:05.646Z,2.80
2022-10-17T00:15:33.855Z,2.17
2022-10-17T00:18:01.898Z,1.97
2022-10-17T00:20:32.795Z,2.37
2022-10-17T00:23:00.685Z,1.93
2022-10-17T00:25:28.628Z,1.97
2022-10-17T00:27:56.493Z,2.03
2022-10-17T00:30:24.369Z,2.10
2022-10-17T00:32:52.324Z,2.30
2022-10-17T00:35:20.183Z,2.00
2022-10-17T00:37:49.410Z,2.10
2022-10-17T00:40:17.344Z,2.20
2022-10-17T00:42:45.213Z,2.10
2022-10-17T00:45:22.726Z,2.17
2022-10-17T00:47:55.151Z,1.60
2022-10-17T00:50:24.232Z,1.70
2022-10-17T00:52:54.022Z,2.03
2022-10-17T00:55:25.406Z,2.23
2022-10-17T00:57:54.165Z,2.07
2022-10-17T01:00:22.530Z,1.60
2022-10-17T01:02:50.437Z,2.07
2022-10-17T01:05:19.261Z,1.73
2022-10-17T01:07:48.701Z,1.97
2022-10-17T01:10:18.523Z,1.80
2022-10-17T01:13:05.297Z,2.00
2022-10-17T01:15:45.030Z,2.00
2022-10-17T01:18:23.302Z,1.93
2022-10-17T01:21:32.501Z,2.00
2022-10-17T01:24:51.483Z,1.70
2022-10-17T01:27:38.896Z,2.00
2022-10-17T01:30:36.013Z,1.83
2022-10-17T01:33:11.850Z,1.70
2022-10-17T01:35:46.306Z,1.87
2022-10-17T01:38:19.437Z,2.10
2022-10-17T01:40:51.937Z,1.57
2022-10-17T01:43:24.814Z,2.10
2022-10-17T01:45:57.204Z,1.90
2022-10-17T01:48:31.370Z,2.10
2022-10-17T01:51:04.788Z,2.13
2022-10-17T01:53:36.799Z,2.10
2022-10-17T01:56:07.911Z,1.87
2022-10-17T01:58:43.179Z,1.87
2022-10-17T02:01:13.479Z,1.63
2022-10-17T02:03:44.757Z,1.90
2022-10-17T02:06:12.529Z,1.80
2022-10-17T02:08:44.044Z,1.93
2022-10-17T02:11:15.997Z,2.27
2022-10-17T02:14:07.723Z,1.90
2022-10-17T02:16:39.651Z,1.67
2022-10-17T02:19:36.569Z,1.70
2022-10-17T02:22:15.026Z,1.90
2022-10-17T02:24:50.226Z,1.90
2022-10-17T02:27:25.181Z,2.00
2022-10-17T02:29:58.280Z,1.87
2022-10-17T02:32:35.099Z,2.10
2022-10-17T02:35:08.011Z,2.10
2022-10-17T02:37:36.710Z,2.10
2022-10-17T02:40:06.460Z,1.70
2022-10-17T02:42:34.737Z,1.70
2022-10-17T02:45:03.820Z,1.80
2022-10-17T02:47:35.949Z,1.87
2022-10-17T02:50:07.642Z,1.97
2022-10-17T02:52:38.964Z,1.57
2022-10-17T02:55:12.427Z,1.57
2022-10-17T02:57:42.849Z,1.53
2022-10-17T03:00:14.148Z,1.57
2022-10-17T03:02:44.130Z,1.60
2022-10-17T03:05:15.221Z,1.53
2022-10-17T03:07:43.017Z,1.97
2022-10-17T03:10:10.945Z,1.60
2022-10-17T03:12:38.711Z,1.90
2022-10-17T03:15:07.648Z,1.80
2022-10-17T03:17:35.470Z,1.97
2022-10-17T03:20:03.856Z,1.73
2022-10-17T03:22:33.521Z,1.70
2022-10-17T03:25:01.282Z,1.90
2022-10-17T03:27:29.250Z,1.80
2022-10-17T03:29:57.149Z,1.57
2022-10-17T03:32:24.900Z,2.03
2022-10-17T03:34:52.655Z,1.80
2022-10-17T03:37:20.378Z,1.87
2022-10-17T03:39:49.452Z,1.90
2022-10-17T03:42:17.245Z,2.10
2022-10-17T03:44:45.007Z,1.50
2022-10-17T03:47:14.257Z,1.70
2022-10-17T03:49:42.221Z,1.80
2022-10-17T03:52:12.530Z,1.87
2022-10-17T03:54:40.289Z,2.03
2022-10-17T03:57:09.388Z,1.80
2022-10-17T03:59:37.146Z,1.90
2022-10-17T04:02:04.890Z,1.70
2022-10-17T04:04:32.645Z,1.53
2022-10-17T04:07:00.404Z,1.57
2022-10-17T04:09:28.277Z,1.80
2022-10-17T04:11:56.060Z,1.60
2022-10-17T04:14:25.146Z,1.70
2022-10-17T04:16:53.773Z,1.70
2022-10-17T04:19:21.711Z,1.60
2022-10-17T04:21:49.549Z,2.00
2022-10-17T04:24:17.418Z,1.90
2022-10-17T04:26:45.237Z,1.80
2022-10-17T04:29:13.213Z,2.23
2022-10-17T04:31:42.401Z,2.60
2022-10-17T04:34:10.169Z,2.00
2022-10-17T04:36:38.969Z,2.17
2022-10-17T04:39:06.796Z,1.90
2022-10-17T04:41:34.591Z,1.90
2022-10-17T04:44:02.345Z,2.00
2022-10-17T04:46:30.324Z,1.87
2022-10-17T04:48:59.434Z,1.90
2022-10-17T04:51:27.170Z,2.00
2022-10-17T04:53:54.892Z,1.80
2022-10-17T04:56:24.564Z,1.73
2022-10-17T04:58:52.704Z,1.93
2022-10-17T05:01:22.053Z,1.90
2022-10-17T05:03:50.116Z,1.77
2022-10-17T05:06:21.237Z,1.97
2022-10-17T05:08:49.600Z,2.20
2022-10-17T05:11:19.958Z,1.90
2022-10-17T05:13:52.233Z,2.03
2022-10-17T05:16:20.044Z,2.07
2022-10-17T05:18:52.792Z,1.87
2022-10-17T05:21:23.679Z,2.03
2022-10-17T05:23:51.818Z,2.13
2022-10-17T05:26:20.820Z,1.70
2022-10-17T05:28:48.706Z,2.27
2022-10-17T05:31:16.774Z,2.20
2022-10-17T05:33:44.562Z,1.90
2022-10-17T05:36:12.376Z,2.23
2022-10-17T05:38:41.514Z,2.33
2022-10-17T05:41:10.548Z,2.20
2022-10-17T05:43:38.303Z,2.10
2022-10-17T05:46:07.008Z,2.93
2022-10-17T05:48:35.516Z,2.57
2022-10-17T05:51:05.017Z,2.60
2022-10-17T05:53:33.881Z,2.33
2022-10-17T05:56:05.321Z,2.50
2022-10-17T05:58:52.311Z,2.10
2022-10-17T06:01:22.081Z,2.10
2022-10-17T06:03:49.855Z,2.13
2022-10-17T06:06:18.789Z,2.30
2022-10-17T06:08:46.758Z,2.33
2022-10-17T06:11:15.941Z,1.90
2022-10-17T06:13:43.786Z,2.00
2022-10-17T06:16:11.545Z,2.10
2022-10-17T06:18:39.320Z,1.70
2022-10-17T06:21:09.629Z,2.30
2022-10-17T06:23:37.625Z,1.80
2022-10-17T06:26:07.500Z,2.13
2022-10-17T06:28:37.561Z,2.30
2022-10-17T06:31:07.244Z,1.73
2022-10-17T06:33:35.143Z,2.20
2022-10-17T06:36:03.065Z,1.90
2022-10-17T06:38:31.188Z,2.03
2022-10-17T06:41:04.956Z,1.63
2022-10-17T06:43:32.684Z,1.70
2022-10-17T06:46:01.818Z,1.90
2022-10-17T06:48:29.616Z,1.80
2022-10-17T06:51:00.489Z,1.93
2022-10-17T06:53:29.718Z,2.10
2022-10-17T06:56:01.268Z,1.90
2022-10-17T06:58:29.129Z,2.00
2022-10-17T07:01:01.582Z,2.10
2022-10-17T07:03:29.951Z,2.13
2022-10-17T07:05:58.129Z,2.00
2022-10-17T07:08:26.651Z,2.00
2022-10-17T07:10:54.600Z,2.00
2022-10-17T07:13:22.693Z,1.93
2022-10-17T07:15:50.506Z,1.90
2022-10-17T07:18:19.669Z,2.03
2022-10-17T07:20:54.640Z,1.93
2022-10-17T07:23:22.505Z,1.53
2022-10-17T07:25:50.268Z,1.73
2022-10-17T07:28:18.212Z,1.73
2022-10-17T07:30:49.461Z,1.73
2022-10-17T07:33:21.244Z,1.80
2022-10-17T07:35:48.978Z,1.73
2022-10-17T07:38:16.756Z,1.87
2022-10-17T07:40:44.770Z,1.67
2022-10-17T07:43:12.534Z,1.53
2022-10-17T07:45:42.097Z,1.57
2022-10-17T07:48:09.833Z,1.83
2022-10-17T07:50:38.976Z,1.70
2022-10-17T07:53:06.765Z,1.80
2022-10-17T07:55:34.533Z,2.00
2022-10-17T07:58:02.292Z,1.80
2022-10-17T08:00:30.247Z,1.77
2022-10-17T08:02:58.025Z,1.50
2022-10-17T08:05:25.860Z,1.50
2022-10-17T08:07:55.884Z,1.20
2022-10-17T08:10:27.543Z,1.53
2022-10-17T08:12:55.865Z,1.60
2022-10-17T08:15:26.795Z,1.70
2022-10-17T08:18:00.047Z,1.77
2022-10-17T08:20:28.318Z,1.77
2022-10-17T08:22:57.658Z,1.43
2022-10-17T08:25:25.466Z,1.40
2022-10-17T08:27:53.227Z,1.70
2022-10-17T08:30:21.009Z,1.30
2022-10-17T08:32:48.761Z,1.00
2022-10-17T08:35:17.303Z,1.13
2022-10-17T08:37:45.095Z,1.30
2022-10-17T08:40:20.106Z,1.25
2022-10-17T08:43:03.930Z,1.50
2022-10-17T08:45:36.604Z,1.20
2022-10-17T08:48:10.726Z,1.45
2022-10-17T08:50:44.371Z,1.60
2022-10-17T08:53:19.831Z,1.30
2022-10-17T08:55:50.709Z,1.40
2022-10-17T08:58:21.885Z,1.23
2022-10-17T09:00:58.252Z,1.63
2022-10-17T09:03:39.505Z,1.67
2022-10-17T09:06:21.485Z,1.60
2022-10-17T09:08:58.996Z,2.10
2022-10-17T09:11:43.016Z,1.40
2022-10-17T09:14:26.228Z,1.70
2022-10-17T09:17:22.997Z,1.70
2022-10-17T09:20:01.882Z,1.92
2022-10-17T09:22:37.884Z,1.63
2022-10-17T09:25:11.769Z,1.80
2022-10-17T09:27:44.157Z,1.88
2022-10-17T09:30:45.162Z,1.88
2022-10-17T09:33:28.265Z,1.80
2022-10-17T09:36:05.384Z,1.77
2022-10-17T09:38:40.556Z,1.67
2022-10-17T09:41:42.849Z,1.58
2022-10-17T09:44:16.800Z,1.63
2022-10-17T09:46:53.224Z,1.63
2022-10-17T09:49:27.882Z,1.50
2022-10-17T09:51:55.914Z,1.38
2022-10-17T09:54:27.810Z,1.90
2022-10-17T09:57:00.621Z,1.67
2022-10-17T09:59:35.113Z,1.95
2022-10-17T10:02:15.547Z,1.90
2022-10-17T10:05:05.068Z,2.08
2022-10-17T10:07:35.853Z,2.17
2022-10-17T10:10:06.993Z,2.20
2022-10-17T10:12:36.487Z,2.03
2022-10-17T10:15:32.132Z,2.20
2022-10-17T10:17:59.972Z,2.30
2022-10-17T10:20:34.502Z,1.80
2022-10-17T10:23:22.061Z,2.15
2022-10-17T10:25:53.955Z,2.33
2022-10-17T10:28:25.243Z,1.83
2022-10-17T10:30:56.376Z,1.75
2022-10-17T10:33:28.490Z,2.28
2022-10-17T10:35:59.296Z,2.10
2022-10-17T10:38:27.298Z,2.40
2022-10-17T10:40:57.127Z,2.40
2022-10-17T10:43:34.008Z,2.40
2022-10-17T10:46:06.320Z,2.10
2022-10-17T10:48:36.292Z,2.75
2022-10-17T10:51:08.216Z,2.65
2022-10-17T10:53:43.886Z,2.60
2022-10-17T10:56:17.641Z,2.42
2022-10-17T10:58:56.318Z,2.55
2022-10-17T11:01:31.003Z,2.42
2022-10-17T11:04:07.734Z,2.97
2022-10-17T11:06:38.429Z,2.70
2022-10-17T11:09:23.948Z,1.98
2022-10-17T11:11:59.564Z,2.40
2022-10-17T11:14:39.145Z,2.38
2022-10-17T11:17:18.526Z,2.72
2022-10-17T11:19:52.630Z,2.58
2022-10-17T11:22:28.195Z,2.55
2022-10-17T11:25:00.953Z,2.72
2022-10-17T11:27:30.342Z,2.60
2022-10-17T11:29:59.358Z,3.08
2022-10-17T11:32:32.618Z,2.50
2022-10-17T11:35:05.180Z,2.92
2022-10-17T11:37:40.239Z,2.63
2022-10-17T11:40:20.440Z,2.40
2022-10-17T11:42:56.924Z,2.58
2022-10-17T11:45:28.105Z,2.92
2022-10-17T11:48:02.679Z,3.10
2022-10-17T11:53:24.764Z,2.60
2022-10-17T11:55:54.862Z,2.85
2022-10-17T11:58:33.028Z,2.58
2022-10-17T12:01:10.113Z,2.30
2022-10-17T12:03:53.482Z,2.63
2022-10-17T12:06:33.157Z,2.83
2022-10-17T12:09:11.129Z,2.53
2022-10-17T12:11:50.702Z,2.77
2022-10-17T12:14:39.820Z,2.70
2022-10-17T12:17:24.410Z,2.60
2022-10-17T12:19:53.585Z,2.80
2022-10-17T12:22:25.923Z,2.83
2022-10-17T12:25:00.345Z,3.10
2022-10-17T12:27:43.433Z,2.50
2022-10-17T12:30:23.681Z,2.70
2022-10-17T12:33:06.109Z,2.30
2022-10-17T12:35:38.145Z,2.65
2022-10-17T12:38:29.676Z,2.35
2022-10-17T12:40:59.369Z,2.58
2022-10-17T12:43:55.705Z,2.40
2022-10-17T12:46:57.077Z,2.40
2022-10-17T12:49:51.189Z,2.10
2022-10-17T12:52:27.415Z,2.40
2022-10-17T12:55:10.555Z,2.13
2022-10-17T12:57:45.217Z,1.92
2022-10-17T13:00:19.974Z,2.30
2022-10-17T13:02:49.023Z,2.00
2022-10-17T13:05:20.409Z,2.15
2022-10-17T13:07:50.617Z,2.00
2022-10-17T13:10:24.458Z,2.17
2022-10-17T13:12:55.569Z,2.20
2022-10-17T13:15:23.357Z,2.10
2022-10-17T13:17:58.575Z,2.30
2022-10-17T13:20:31.465Z,2.28
2022-10-17T13:23:01.132Z,1.90
2022-10-17T13:25:29.356Z,1.83
2022-10-17T13:28:12.090Z,2.20
2022-10-17T13:30:40.216Z,1.83
2022-10-17T13:33:29.371Z,1.70
2022-10-17T13:36:01.258Z,1.70
2022-10-17T13:38:34.888Z,2.10
2022-10-17T13:41:34.419Z,2.25
2022-10-17T13:43:53.008Z,2.25
2022-10-17T13:46:37.903Z,2.17
2022-10-17T13:49:12.549Z,1.80
2022-10-17T13:51:44.701Z,1.95
2022-10-17T13:54:31.551Z,2.30
2022-10-17T13:57:00.221Z,2.43
2022-10-17T13:59:34.945Z,3.20
2022-10-17T14:02:03.103Z,2.43
2022-10-17T14:04:44.667Z,2.40
2022-10-17T14:07:27.764Z,2.47
2022-10-17T14:09:58.393Z,2.67
2022-10-17T14:12:26.275Z,2.57
2022-10-17T14:15:11.335Z,2.30
2022-10-17T14:17:40.325Z,2.37
2022-10-17T14:20:57.160Z,2.60
2022-10-17T14:23:21.520Z,2.37
2022-10-17T14:25:47.721Z,2.60
2022-10-17T14:28:18.278Z,2.60
2022-10-17T14:31:03.214Z,2.40
2022-10-17T14:33:34.599Z,2.40
2022-10-17T14:36:06.178Z,2.73
2022-10-17T14:38:35.838Z,2.17
2022-10-17T14:41:40.954Z,2.50
2022-10-17T14:44:00.540Z,2.30
2022-10-17T14:46:28.873Z,2.17
2022-10-17T14:49:03.033Z,2.20
2022-10-17T14:51:40.021Z,1.90
2022-10-17T14:54:23.008Z,1.90
2022-10-17T14:56:54.794Z,2.20
2022-10-17T14:59:52.120Z,1.80
2022-10-17T15:02:12.984Z,2.10
2022-10-17T15:04:40.746Z,2.03
2022-10-17T15:07:11.401Z,2.10
2022-10-17T15:09:39.142Z,2.03
2022-10-17T15:12:15.340Z,1.80
2022-10-17T15:14:43.244Z,1.93
2022-10-17T15:17:15.230Z,1.80
2022-10-17T15:19:43.232Z,1.90
2022-10-17T15:22:11.023Z,1.60
2022-10-17T15:24:38.786Z,1.50
2022-10-17T15:27:18.026Z,1.83
2022-10-17T15:29:46.698Z,2.03
2022-10-17T15:32:14.981Z,1.90
2022-10-17T15:34:42.919Z,1.90
2022-10-17T15:37:18.387Z,1.77
2022-10-17T15:39:52.805Z,1.90
2022-10-17T15:42:22.801Z,1.60
2022-10-17T15:44:50.735Z,2.33
2022-10-17T15:47:26.182Z,1.80
2022-10-17T15:49:55.037Z,2.00
2022-10-17T15:52:23.058Z,1.90
2022-10-17T15:54:50.998Z,1.90
2022-10-17T15:57:23.947Z,1.73
2022-10-17T15:59:53.387Z,2.10
2022-10-17T16:02:22.863Z,2.07
2022-10-17T16:04:51.542Z,2.03
2022-10-17T16:07:20.007Z,2.10
2022-10-17T16:09:48.342Z,2.40
2022-10-17T16:12:18.379Z,2.07
2022-10-17T16:14:47.544Z,2.20
2022-10-17T16:17:16.571Z,2.17
2022-10-17T16:19:44.716Z,2.33
2022-10-17T16:22:23.821Z,2.10
2022-10-17T16:24:58.102Z,2.30
2022-10-17T16:27:26.036Z,2.70
2022-10-17T16:29:55.140Z,2.90
2022-10-17T16:32:22.891Z,2.90
2022-10-17T16:34:50.627Z,3.57
2022-10-17T16:37:18.417Z,3.70
2022-10-17T16:39:49.063Z,3.70
2022-10-17T16:42:16.945Z,3.33
2022-10-17T16:44:44.767Z,3.07
2022-10-17T16:47:13.865Z,2.90
2022-10-17T16:49:44.453Z,2.50
2022-10-17T16:52:13.296Z,2.97
2022-10-17T16:54:41.103Z,2.80
2022-10-17T16:57:08.943Z,2.87
2022-10-17T16:59:36.749Z,3.03
2022-10-17T17:02:04.604Z,2.77
2022-10-17T17:04:33.820Z,2.80
2022-10-17T17:07:01.595Z,2.97
2022-10-17T17:09:29.474Z,3.20
2022-10-17T17:11:57.261Z,3.30
2022-10-17T17:14:25.004Z,3.00
2022-10-17T17:16:52.785Z,2.90
2022-10-17T17:19:20.610Z,2.83
2022-10-17T17:21:51.019Z,3.33
2022-10-17T17:24:20.878Z,3.23
2022-10-17T17:26:52.233Z,2.97
2022-10-17T17:29:20.427Z,3.30
2022-10-17T17:31:48.241Z,3.00
2022-10-17T17:34:18.109Z,3.30
2022-10-17T17:36:46.690Z,3.63
2022-10-17T17:39:16.460Z,3.80
2022-10-17T17:41:45.489Z,3.10
2022-10-17T17:44:16.683Z,3.20
2022-10-17T17:46:45.265Z,3.53
2022-10-17T17:49:13.208Z,3.00
2022-10-17T17:51:41.470Z,3.50
2022-10-17T17:54:11.364Z,3.47
2022-10-17T17:56:40.750Z,3.90
2022-10-17T17:59:08.609Z,3.90
2022-10-17T18:01:38.655Z,4.20
2022-10-17T18:04:08.469Z,4.23
2022-10-17T18:06:37.296Z,4.30
2022-10-17T18:09:06.390Z,4.30
2022-10-17T18:11:34.385Z,4.37
2022-10-17T18:14:05.197Z,4.47
2022-10-17T18:16:34.509Z,4.43
2022-10-17T18:19:06.737Z,4.37
2022-10-17T18:21:35.175Z,4.83
2022-10-17T18:24:04.398Z,3.97
2022-10-17T18:26:32.277Z,4.33
2022-10-17T18:29:00.197Z,5.20
2022-10-17T18:31:31.990Z,5.00
2022-10-17T18:34:00.923Z,5.47
2022-10-17T18:36:30.006Z,5.23
2022-10-17T18:38:59.881Z,5.00
2022-10-17T18:41:28.390Z,5.20
2022-10-17T18:43:57.479Z,5.63
2022-10-17T18:46:26.788Z,6.57
2022-10-17T18:48:56.296Z,6.00
2022-10-17T18:51:25.925Z,5.40
2022-10-17T18:53:55.276Z,5.73
2022-10-17T18:56:23.831Z,5.60
2022-10-17T18:58:52.200Z,5.23
2022-10-17T19:01:21.747Z,4.77
2022-10-17T19:03:51.649Z,5.20
2022-10-17T19:06:22.795Z,4.97
2022-10-17T19:08:51.142Z,4.97
2022-10-17T19:11:21.949Z,5.03
2022-10-17T19:13:50.610Z,4.60
2022-10-17T19:16:20.469Z,4.60
2022-10-17T19:18:50.913Z,5.20
2022-10-17T19:21:22.042Z,4.50
2022-10-17T19:23:51.376Z,4.70
2022-10-17T19:26:19.706Z,5.27
2022-10-17T19:28:47.799Z,5.13
2022-10-17T19:31:17.937Z,4.93
2022-10-17T19:33:46.212Z,4.70
2022-10-17T19:36:14.929Z,4.40
2022-10-17T19:38:44.236Z,4.20
2022-10-17T19:41:13.728Z,3.93
2022-10-17T19:43:43.099Z,4.10
2022-10-17T19:46:14.001Z,4.00
2022-10-17T19:48:41.845Z,4.10
2022-10-17T19:51:12.641Z,4.03
2022-10-17T19:53:41.333Z,4.97
2022-10-17T19:56:11.527Z,4.87
2022-10-17T19:58:44.919Z,4.83
2022-10-17T20:01:14.447Z,4.87
2022-10-17T20:03:42.247Z,5.13
2022-10-17T20:06:10.377Z,4.40
2022-10-17T20:08:38.953Z,4.80
2022-10-17T20:11:08.849Z,5.67
2022-10-17T20:13:38.521Z,5.67
2022-10-17T20:16:07.945Z,5.83
2022-10-17T20:18:35.941Z,6.00
2022-10-17T20:21:05.340Z,6.10
2022-10-17T20:23:33.239Z,6.13
2022-10-17T20:26:08.697Z,6.50
2022-10-17T20:28:48.639Z,5.77
2022-10-17T20:31:17.115Z,6.00
2022-10-17T20:33:44.882Z,5.90
2022-10-17T20:36:14.625Z,5.83
2022-10-17T20:38:42.366Z,5.93
2022-10-17T20:41:11.000Z,6.07
2022-10-17T20:43:39.003Z,6.07
2022-10-17T20:46:23.531Z,6.17
2022-10-17T20:49:02.742Z,4.90
2022-10-17T20:51:30.636Z,5.80
2022-10-17T20:53:58.445Z,4.87
2022-10-17T20:56:27.777Z,5.03
2022-10-17T20:58:57.077Z,5.00
2022-10-17T21:01:27.135Z,4.77
2022-10-17T21:03:57.065Z,5.37
2022-10-17T21:06:27.556Z,5.40
2022-10-17T21:08:56.398Z,4.90
2022-10-17T21:11:25.820Z,5.17
2022-10-17T21:13:57.343Z,5.03
2022-10-17T21:16:26.967Z,5.10
2022-10-17T21:18:55.812Z,5.60
2022-10-17T21:21:26.632Z,5.20
2022-10-17T21:23:56.028Z,5.30
2022-10-17T21:26:23.964Z,5.70
2022-10-17T21:28:51.947Z,5.40
2022-10-17T21:31:21.369Z,5.77
2022-10-17T21:33:52.829Z,4.93
2022-10-17T21:36:21.964Z,4.90
2022-10-17T21:38:51.456Z,5.60
2022-10-17T21:41:20.584Z,5.23
2022-10-17T21:43:49.052Z,5.50
2022-10-17T21:46:18.675Z,5.30
2022-10-17T21:48:47.653Z,5.13
2022-10-17T21:51:18.721Z,5.57
2022-10-17T21:53:46.828Z,5.00
2022-10-17T21:56:16.737Z,4.63
2022-10-17T21:58:45.216Z,5.03
2022-10-17T22:01:14.962Z,5.30
2022-10-17T22:03:46.680Z,5.40
2022-10-17T22:06:38.783Z,5.30
2022-10-17T22:09:08.348Z,4.80
2022-10-17T22:11:36.845Z,4.70
2022-10-17T22:14:07.453Z,4.40
2022-10-17T22:16:35.844Z,4.73
2022-10-17T22:19:06.782Z,4.57
2022-10-17T22:21:37.385Z,5.00
2022-10-17T22:24:08.146Z,4.80
2022-10-17T22:26:37.256Z,4.53
2022-10-17T22:29:05.786Z,4.23
2022-10-17T22:31:33.976Z,4.37
2022-10-17T22:34:01.740Z,5.07
2022-10-17T22:36:29.512Z,4.70
2022-10-17T22:38:58.588Z,4.40
2022-10-17T22:41:26.435Z,4.83
2022-10-17T22:43:54.185Z,4.07
2022-10-17T22:46:21.962Z,3.40
2022-10-17T22:48:49.717Z,3.73
2022-10-17T22:51:17.696Z,3.90
2022-10-17T22:53:45.762Z,3.83
2022-10-17T22:56:17.077Z,4.17
2022-10-17T22:58:45.356Z,3.80
2022-10-17T23:01:16.417Z,4.10
2022-10-17T23:03:44.272Z,3.87
2022-10-17T23:06:12.329Z,4.10
2022-10-17T23:08:40.665Z,4.73
2022-10-17T23:11:08.790Z,5.10
2022-10-17T23:13:39.643Z,4.33
2022-10-17T23:16:08.325Z,4.27
2022-10-17T23:18:36.368Z,4.40
2022-10-17T23:21:04.163Z,4.43
2022-10-17T23:23:31.932Z,4.10
2022-10-17T23:26:05.445Z,4.07
2022-10-17T23:28:35.222Z,4.43
2022-10-17T23:31:15.241Z,4.00
2022-10-17T23:33:44.733Z,4.27
2022-10-17T23:36:13.438Z,5.17
2022-10-17T23:38:41.619Z,4.37
2022-10-17T23:41:09.762Z,4.50
2022-10-17T23:43:38.014Z,4.30
2022-10-17T23:46:07.295Z,4.17
2022-10-17T23:48:40.386Z,3.73
2022-10-17T23:51:08.627Z,4.47
2022-10-17T23:53:36.647Z,4.53
2022-10-17T23:56:04.787Z,4.30
2022-10-17T23:58:32.657Z,4.13
